sensor_id;sensor_type;location;lat;lon;timestamp;temperature;humidity
17066;DHT22;23120;52.336;21.182;2023-09-19T00:01:20;18.70;99.90
17066;DHT22;23120;52.336;21.182;2023-09-19T00:03:47;18.60;99.90
17066;DHT22;23120;52.336;21.182;2023-09-19T00:06:14;18.60;99.90
17066;DHT22;23120;52.336;21.182;2023-09-19T00:08:41;18.60;99.90
17066;DHT22;23120;52.336;21.182;2023-09-19T00:11:09;18.60;99.90
17066;DHT22;23120;52.336;21.182;2023-09-19T00:13:37;18.60;99.90
17066;DHT22;23120;52.336;21.182;2023-09-19T00:16:08;18.50;99.90
17066;DHT22;23120;52.336;21.182;2023-09-19T00:18:37;18.50;99.90
17066;DHT22;23120;52.336;21.182;2023-09-19T00:21:04;18.50;99.90
17066;DHT22;23120;52.336;21.182;2023-09-19T00:23:32;18.40;99.90
17066;DHT22;23120;52.336;21.182;2023-09-19T00:25:59;18.40;99.90
17066;DHT22;23120;52.336;21.182;2023-09-19T00:28:26;18.40;99.90
17066;DHT22;23120;52.336;21.182;2023-09-19T00:30:57;18.40;99.90
17066;DHT22;23120;52.336;21.182;2023-09-19T00:33:27;18.40;99.90
17066;DHT22;23120;52.336;21.182;2023-09-19T00:35:56;18.40;99.90
17066;DHT22;23120;52.336;21.182;2023-09-19T00:38:24;18.30;99.90
17066;DHT22;23120;52.336;21.182;2023-09-19T00:40:53;18.30;99.90
17066;DHT22;23120;52.336;21.182;2023-09-19T00:43:21;18.30;99.90
17066;DHT22;23120;52.336;21.182;2023-09-19T00:45:52;18.30;99.90
17066;DHT22;23120;52.336;21.182;2023-09-19T00:48:21;18.30;99.90
17066;DHT22;23120;52.336;21.182;2023-09-19T00:50:48;18.20;99.90
17066;DHT22;23120;52.336;21.182;2023-09-19T00:53:19;18.20;99.90
17066;DHT22;23120;52.336;21.182;2023-09-19T00:55:47;18.20;99.90
17066;DHT22;23120;52.336;21.182;2023-09-19T00:58:16;18.20;99.90
17066;DHT22;23120;52.336;21.182;2023-09-19T01:00:44;18.20;99.90
17066;DHT22;23120;52.336;21.182;2023-09-19T01:03:11;18.20;99.90
17066;DHT22;23120;52.336;21.182;2023-09-19T01:05:40;18.20;99.90
17066;DHT22;23120;52.336;21.182;2023-09-19T01:08:07;18.10;99.90
17066;DHT22;23120;52.336;21.182;2023-09-19T01:10:41;18.10;99.90
17066;DHT22;23120;52.336;21.182;2023-09-19T01:13:13;18.10;99.90
17066;DHT22;23120;52.336;21.182;2023-09-19T01:15:51;18.10;99.90
17066;DHT22;23120;52.336;21.182;2023-09-19T01:18:35;18.10;99.90
17066;DHT22;23120;52.336;21.182;2023-09-19T01:21:08;18.10;99.90
17066;DHT22;23120;52.336;21.182;2023-09-19T01:29:51;18.10;99.90
17066;DHT22;23120;52.336;21.182;2023-09-19T01:32:22;18.10;99.90
17066;DHT22;23120;52.336;21.182;2023-09-19T01:34:56;18.10;99.90
17066;DHT22;23120;52.336;21.182;2023-09-19T01:37:25;18.10;99.90
17066;DHT22;23120;52.336;21.182;2023-09-19T01:39:56;18.00;99.90
17066;DHT22;23120;52.336;21.182;2023-09-19T01:42:31;18.00;99.90
17066;DHT22;23120;52.336;21.182;2023-09-19T01:45:08;18.00;99.90
17066;DHT22;23120;52.336;21.182;2023-09-19T01:47:46;18.00;99.90
17066;DHT22;23120;52.336;21.182;2023-09-19T01:50:23;17.90;99.90
17066;DHT22;23120;52.336;21.182;2023-09-19T01:52:56;17.90;99.90
17066;DHT22;23120;52.336;21.182;2023-09-19T01:55:28;17.90;99.90
17066;DHT22;23120;52.336;21.182;2023-09-19T01:58:01;17.90;99.90
17066;DHT22;23120;52.336;21.182;2023-09-19T02:00:33;17.90;99.90
17066;DHT22;23120;52.336;21.182;2023-09-19T02:03:03;17.80;99.90
17066;DHT22;23120;52.336;21.182;2023-09-19T02:05:30;17.80;99.90
17066;DHT22;23120;52.336;21.182;2023-09-19T02:07:58;17.80;99.90
17066;DHT22;23120;52.336;21.182;2023-09-19T02:10:26;17.80;99.90
17066;DHT22;23120;52.336;21.182;2023-09-19T02:12:53;17.80;99.90
17066;DHT22;23120;52.336;21.182;2023-09-19T02:15:20;17.80;99.90
17066;DHT22;23120;52.336;21.182;2023-09-19T02:17:47;17.80;99.90
17066;DHT22;23120;52.336;21.182;2023-09-19T02:20:16;17.80;99.90
17066;DHT22;23120;52.336;21.182;2023-09-19T02:22:45;17.80;99.90
17066;DHT22;23120;52.336;21.182;2023-09-19T02:25:12;17.80;99.90
17066;DHT22;23120;52.336;21.182;2023-09-19T02:27:40;17.80;99.90
17066;DHT22;23120;52.336;21.182;2023-09-19T02:30:08;17.80;99.90
17066;DHT22;23120;52.336;21.182;2023-09-19T02:32:34;17.80;99.90
17066;DHT22;23120;52.336;21.182;2023-09-19T02:35:06;17.70;99.90
17066;DHT22;23120;52.336;21.182;2023-09-19T02:37:34;17.70;99.90
17066;DHT22;23120;52.336;21.182;2023-09-19T02:40:01;17.70;99.90
17066;DHT22;23120;52.336;21.182;2023-09-19T02:42:44;17.70;99.90
17066;DHT22;23120;52.336;21.182;2023-09-19T02:45:15;17.70;99.90
17066;DHT22;23120;52.336;21.182;2023-09-19T02:47:43;17.70;99.90
17066;DHT22;23120;52.336;21.182;2023-09-19T02:50:10;17.70;99.90
17066;DHT22;23120;52.336;21.182;2023-09-19T02:52:41;17.70;99.90
17066;DHT22;23120;52.336;21.182;2023-09-19T02:55:10;17.70;99.90
17066;DHT22;23120;52.336;21.182;2023-09-19T02:57:37;17.70;99.90
17066;DHT22;23120;52.336;21.182;2023-09-19T03:00:07;17.70;99.90
17066;DHT22;23120;52.336;21.182;2023-09-19T03:02:36;17.60;99.90
17066;DHT22;23120;52.336;21.182;2023-09-19T03:05:04;17.60;99.90
17066;DHT22;23120;52.336;21.182;2023-09-19T03:07:31;17.60;99.90
17066;DHT22;23120;52.336;21.182;2023-09-19T03:10:00;17.60;99.90
17066;DHT22;23120;52.336;21.182;2023-09-19T03:12:27;17.60;99.90
17066;DHT22;23120;52.336;21.182;2023-09-19T03:14:54;17.60;99.90
17066;DHT22;23120;52.336;21.182;2023-09-19T03:17:22;17.50;99.90
17066;DHT22;23120;52.336;21.182;2023-09-19T03:19:49;17.50;99.90
17066;DHT22;23120;52.336;21.182;2023-09-19T03:22:16;17.50;99.90
17066;DHT22;23120;52.336;21.182;2023-09-19T03:24:43;17.50;99.90
17066;DHT22;23120;52.336;21.182;2023-09-19T03:27:13;17.40;99.90
17066;DHT22;23120;52.336;21.182;2023-09-19T03:29:41;17.50;99.90
17066;DHT22;23120;52.336;21.182;2023-09-19T03:32:08;17.40;99.90
17066;DHT22;23120;52.336;21.182;2023-09-19T03:34:37;17.40;99.90
17066;DHT22;23120;52.336;21.182;2023-09-19T03:37:08;17.30;99.90
17066;DHT22;23120;52.336;21.182;2023-09-19T03:39:35;17.40;99.90
17066;DHT22;23120;52.336;21.182;2023-09-19T03:42:03;17.30;99.90
17066;DHT22;23120;52.336;21.182;2023-09-19T03:44:34;17.30;99.90
17066;DHT22;23120;52.336;21.182;2023-09-19T03:47:01;17.30;99.90
17066;DHT22;23120;52.336;21.182;2023-09-19T03:49:30;17.30;99.90
17066;DHT22;23120;52.336;21.182;2023-09-19T03:51:57;17.30;99.90
17066;DHT22;23120;52.336;21.182;2023-09-19T03:54:24;17.30;99.90
17066;DHT22;23120;52.336;21.182;2023-09-19T03:56:51;17.30;99.90
17066;DHT22;23120;52.336;21.182;2023-09-19T03:59:18;17.30;99.90
17066;DHT22;23120;52.336;21.182;2023-09-19T04:01:47;17.30;99.90
17066;DHT22;23120;52.336;21.182;2023-09-19T04:04:14;17.30;99.90
17066;DHT22;23120;52.336;21.182;2023-09-19T04:06:41;17.30;99.90
17066;DHT22;23120;52.336;21.182;2023-09-19T04:09:08;17.30;99.90
17066;DHT22;23120;52.336;21.182;2023-09-19T04:11:35;17.30;99.90
17066;DHT22;23120;52.336;21.182;2023-09-19T04:14:03;17.30;99.90
17066;DHT22;23120;52.336;21.182;2023-09-19T04:16:31;17.30;99.90
17066;DHT22;23120;52.336;21.182;2023-09-19T04:19:00;17.30;99.90
17066;DHT22;23120;52.336;21.182;2023-09-19T04:21:28;17.30;99.90
17066;DHT22;23120;52.336;21.182;2023-09-19T04:23:55;17.30;99.90
17066;DHT22;23120;52.336;21.182;2023-09-19T04:26:22;17.30;99.90
17066;DHT22;23120;52.336;21.182;2023-09-19T04:28:49;17.30;99.90
17066;DHT22;23120;52.336;21.182;2023-09-19T04:31:17;17.30;99.90
17066;DHT22;23120;52.336;21.182;2023-09-19T04:33:45;17.30;99.90
17066;DHT22;23120;52.336;21.182;2023-09-19T04:36:13;17.30;99.90
17066;DHT22;23120;52.336;21.182;2023-09-19T04:38:40;17.30;99.90
17066;DHT22;23120;52.336;21.182;2023-09-19T04:41:07;17.30;99.90
17066;DHT22;23120;52.336;21.182;2023-09-19T04:43:34;17.30;99.90
17066;DHT22;23120;52.336;21.182;2023-09-19T04:46:01;17.30;99.90
17066;DHT22;23120;52.336;21.182;2023-09-19T05:49:19;17.90;99.90
17066;DHT22;23120;52.336;21.182;2023-09-19T05:51:47;17.90;99.90
17066;DHT22;23120;52.336;21.182;2023-09-19T05:54:14;18.00;99.90
17066;DHT22;23120;52.336;21.182;2023-09-19T05:56:41;18.00;99.90
17066;DHT22;23120;52.336;21.182;2023-09-19T05:59:08;18.10;99.90
17066;DHT22;23120;52.336;21.182;2023-09-19T06:01:35;18.10;99.90
17066;DHT22;23120;52.336;21.182;2023-09-19T06:04:02;18.10;99.90
17066;DHT22;23120;52.336;21.182;2023-09-19T06:06:31;18.10;99.90
17066;DHT22;23120;52.336;21.182;2023-09-19T06:08:59;18.10;99.90
17066;DHT22;23120;52.336;21.182;2023-09-19T06:11:26;18.20;99.90
17066;DHT22;23120;52.336;21.182;2023-09-19T06:13:55;18.20;99.90
17066;DHT22;23120;52.336;21.182;2023-09-19T06:16:21;18.30;99.90
17066;DHT22;23120;52.336;21.182;2023-09-19T06:19:20;18.30;99.90
17066;DHT22;23120;52.336;21.182;2023-09-19T06:22:07;18.40;99.90
17066;DHT22;23120;52.336;21.182;2023-09-19T06:24:46;18.50;99.90
17066;DHT22;23120;52.336;21.182;2023-09-19T06:28:45;18.50;99.90
17066;DHT22;23120;52.336;21.182;2023-09-19T06:31:12;18.60;99.90
17066;DHT22;23120;52.336;21.182;2023-09-19T06:33:39;18.70;99.90
17066;DHT22;23120;52.336;21.182;2023-09-19T06:36:06;18.70;99.90
17066;DHT22;23120;52.336;21.182;2023-09-19T06:38:34;18.80;99.90
17066;DHT22;23120;52.336;21.182;2023-09-19T06:41:02;18.90;99.90
17066;DHT22;23120;52.336;21.182;2023-09-19T06:43:30;18.90;99.90
17066;DHT22;23120;52.336;21.182;2023-09-19T06:45:58;19.00;99.90
17066;DHT22;23120;52.336;21.182;2023-09-19T06:48:25;19.00;99.90
17066;DHT22;23120;52.336;21.182;2023-09-19T06:50:54;19.10;99.90
17066;DHT22;23120;52.336;21.182;2023-09-19T06:53:22;19.10;99.90
17066;DHT22;23120;52.336;21.182;2023-09-19T08:37:14;22.10;99.90
17066;DHT22;23120;52.336;21.182;2023-09-19T08:55:52;22.40;99.90
17066;DHT22;23120;52.336;21.182;2023-09-19T08:58:25;22.40;99.90
17066;DHT22;23120;52.336;21.182;2023-09-19T09:00:56;22.50;99.90
17066;DHT22;23120;52.336;21.182;2023-09-19T09:08:20;22.50;99.90
17066;DHT22;23120;52.336;21.182;2023-09-19T09:14:37;22.50;99.90
17066;DHT22;23120;52.336;21.182;2023-09-19T09:17:40;22.50;99.90
17066;DHT22;23120;52.336;21.182;2023-09-19T09:20:54;22.60;99.90
17066;DHT22;23120;52.336;21.182;2023-09-19T09:23:21;22.60;99.90
17066;DHT22;23120;52.336;21.182;2023-09-19T09:25:52;22.60;99.90
17066;DHT22;23120;52.336;21.182;2023-09-19T09:42:29;22.50;99.90
17066;DHT22;23120;52.336;21.182;2023-09-19T09:45:13;22.40;99.90
17066;DHT22;23120;52.336;21.182;2023-09-19T09:52:05;22.20;99.90
17066;DHT22;23120;52.336;21.182;2023-09-19T09:54:34;22.10;99.90
17066;DHT22;23120;52.336;21.182;2023-09-19T10:04:29;21.90;99.90
17066;DHT22;23120;52.336;21.182;2023-09-19T10:12:03;21.60;99.90
17066;DHT22;23120;52.336;21.182;2023-09-19T10:14:37;21.40;99.90
17066;DHT22;23120;52.336;21.182;2023-09-19T10:17:18;21.40;99.90
17066;DHT22;23120;52.336;21.182;2023-09-19T10:20:04;21.30;99.90
17066;DHT22;23120;52.336;21.182;2023-09-19T10:22:35;21.20;99.90
17066;DHT22;23120;52.336;21.182;2023-09-19T10:25:05;21.20;99.90
17066;DHT22;23120;52.336;21.182;2023-09-19T10:27:36;21.10;99.90
17066;DHT22;23120;52.336;21.182;2023-09-19T10:30:05;21.10;99.90
17066;DHT22;23120;52.336;21.182;2023-09-19T10:32:35;21.00;99.90
17066;DHT22;23120;52.336;21.182;2023-09-19T10:35:05;21.00;99.90
17066;DHT22;23120;52.336;21.182;2023-09-19T10:37:34;20.90;99.90
17066;DHT22;23120;52.336;21.182;2023-09-19T10:40:04;20.90;99.90
17066;DHT22;23120;52.336;21.182;2023-09-19T10:42:49;20.80;99.90
17066;DHT22;23120;52.336;21.182;2023-09-19T10:45:17;20.80;99.90
17066;DHT22;23120;52.336;21.182;2023-09-19T10:47:45;20.70;99.90
17066;DHT22;23120;52.336;21.182;2023-09-19T10:50:35;20.70;99.90
17066;DHT22;23120;52.336;21.182;2023-09-19T10:53:14;20.70;99.90
17066;DHT22;23120;52.336;21.182;2023-09-19T10:55:50;20.60;99.90
17066;DHT22;23120;52.336;21.182;2023-09-19T10:58:26;20.60;99.90
17066;DHT22;23120;52.336;21.182;2023-09-19T11:00:56;20.60;99.90
17066;DHT22;23120;52.336;21.182;2023-09-19T11:03:27;20.60;99.90
17066;DHT22;23120;52.336;21.182;2023-09-19T11:06:05;20.70;99.90
17066;DHT22;23120;52.336;21.182;2023-09-19T11:08:58;20.70;99.90
17066;DHT22;23120;52.336;21.182;2023-09-19T11:11:43;20.70;99.90
17066;DHT22;23120;52.336;21.182;2023-09-19T11:18:52;20.70;99.90
17066;DHT22;23120;52.336;21.182;2023-09-19T11:21:54;20.80;99.90
17066;DHT22;23120;52.336;21.182;2023-09-19T12:47:22;20.70;99.90
17066;DHT22;23120;52.336;21.182;2023-09-19T12:50:15;20.80;99.90
17066;DHT22;23120;52.336;21.182;2023-09-19T13:01:11;20.80;99.90
17066;DHT22;23120;52.336;21.182;2023-09-19T13:04:14;20.80;99.90
17066;DHT22;23120;52.336;21.182;2023-09-19T13:10:02;20.70;99.90
17066;DHT22;23120;52.336;21.182;2023-09-19T13:13:11;20.80;99.90
17066;DHT22;23120;52.336;21.182;2023-09-19T13:15:54;20.80;99.90
17066;DHT22;23120;52.336;21.182;2023-09-19T13:18:23;20.80;99.90
17066;DHT22;23120;52.336;21.182;2023-09-19T13:21:08;20.80;99.90
17066;DHT22;23120;52.336;21.182;2023-09-19T13:23:41;20.70;99.90
17066;DHT22;23120;52.336;21.182;2023-09-19T13:26:09;20.80;99.90
17066;DHT22;23120;52.336;21.182;2023-09-19T13:28:37;20.80;99.90
17066;DHT22;23120;52.336;21.182;2023-09-19T13:31:04;20.80;99.90
17066;DHT22;23120;52.336;21.182;2023-09-19T13:33:32;20.80;99.90
17066;DHT22;23120;52.336;21.182;2023-09-19T13:35:59;20.80;99.90
17066;DHT22;23120;52.336;21.182;2023-09-19T13:38:27;20.80;99.90
17066;DHT22;23120;52.336;21.182;2023-09-19T13:40:54;20.80;99.90
17066;DHT22;23120;52.336;21.182;2023-09-19T13:43:21;20.80;99.90
17066;DHT22;23120;52.336;21.182;2023-09-19T13:45:50;20.80;99.90
17066;DHT22;23120;52.336;21.182;2023-09-19T13:48:17;20.80;99.90
17066;DHT22;23120;52.336;21.182;2023-09-19T13:50:48;20.80;99.90
17066;DHT22;23120;52.336;21.182;2023-09-19T13:53:15;20.80;99.90
17066;DHT22;23120;52.336;21.182;2023-09-19T13:55:45;20.80;99.90
17066;DHT22;23120;52.336;21.182;2023-09-19T13:58:11;20.80;99.90
17066;DHT22;23120;52.336;21.182;2023-09-19T14:00:38;20.80;99.90
17066;DHT22;23120;52.336;21.182;2023-09-19T14:03:05;20.80;99.90
17066;DHT22;23120;52.336;21.182;2023-09-19T14:05:32;20.80;99.90
17066;DHT22;23120;52.336;21.182;2023-09-19T14:07:59;20.80;99.90
17066;DHT22;23120;52.336;21.182;2023-09-19T14:10:26;20.80;99.90
17066;DHT22;23120;52.336;21.182;2023-09-19T14:12:57;20.80;99.90
17066;DHT22;23120;52.336;21.182;2023-09-19T14:15:25;20.80;99.90
17066;DHT22;23120;52.336;21.182;2023-09-19T14:17:56;20.80;99.90
17066;DHT22;23120;52.336;21.182;2023-09-19T14:20:23;20.90;99.90
17066;DHT22;23120;52.336;21.182;2023-09-19T14:22:52;20.80;99.90
17066;DHT22;23120;52.336;21.182;2023-09-19T14:25:19;20.80;99.90
17066;DHT22;23120;52.336;21.182;2023-09-19T14:27:46;20.80;99.90
17066;DHT22;23120;52.336;21.182;2023-09-19T14:30:15;20.80;99.90
17066;DHT22;23120;52.336;21.182;2023-09-19T14:32:41;20.80;99.90
17066;DHT22;23120;52.336;21.182;2023-09-19T14:35:08;20.80;99.90
17066;DHT22;23120;52.336;21.182;2023-09-19T14:37:36;20.90;99.90
17066;DHT22;23120;52.336;21.182;2023-09-19T14:40:05;20.80;99.90
17066;DHT22;23120;52.336;21.182;2023-09-19T14:42:35;20.90;99.90
17066;DHT22;23120;52.336;21.182;2023-09-19T14:45:05;20.90;99.90
17066;DHT22;23120;52.336;21.182;2023-09-19T14:47:33;20.90;99.90
17066;DHT22;23120;52.336;21.182;2023-09-19T14:50:01;20.90;99.90
17066;DHT22;23120;52.336;21.182;2023-09-19T14:52:32;20.90;99.90
17066;DHT22;23120;52.336;21.182;2023-09-19T14:54:59;20.90;99.90
17066;DHT22;23120;52.336;21.182;2023-09-19T14:57:27;20.80;99.90
17066;DHT22;23120;52.336;21.182;2023-09-19T14:59:55;20.80;99.90
17066;DHT22;23120;52.336;21.182;2023-09-19T15:02:22;20.80;99.90
17066;DHT22;23120;52.336;21.182;2023-09-19T15:04:51;20.80;99.90
17066;DHT22;23120;52.336;21.182;2023-09-19T15:07:18;20.80;99.90
17066;DHT22;23120;52.336;21.182;2023-09-19T15:09:45;20.80;99.90
17066;DHT22;23120;52.336;21.182;2023-09-19T15:12:12;20.80;99.90
17066;DHT22;23120;52.336;21.182;2023-09-19T15:14:40;20.80;99.90
17066;DHT22;23120;52.336;21.182;2023-09-19T15:17:08;20.80;99.90
17066;DHT22;23120;52.336;21.182;2023-09-19T15:19:35;20.80;99.90
17066;DHT22;23120;52.336;21.182;2023-09-19T15:22:05;20.80;99.90
17066;DHT22;23120;52.336;21.182;2023-09-19T15:24:32;20.80;99.90
17066;DHT22;23120;52.336;21.182;2023-09-19T15:26:59;20.80;99.90
17066;DHT22;23120;52.336;21.182;2023-09-19T15:29:26;20.70;99.90
17066;DHT22;23120;52.336;21.182;2023-09-19T15:31:55;20.80;99.90
17066;DHT22;23120;52.336;21.182;2023-09-19T15:34:24;20.80;99.90
17066;DHT22;23120;52.336;21.182;2023-09-19T15:36:51;20.80;99.90
17066;DHT22;23120;52.336;21.182;2023-09-19T15:39:19;20.80;99.90
17066;DHT22;23120;52.336;21.182;2023-09-19T15:41:48;20.80;99.90
17066;DHT22;23120;52.336;21.182;2023-09-19T15:44:17;20.80;99.90
17066;DHT22;23120;52.336;21.182;2023-09-19T15:46:45;20.80;99.90
17066;DHT22;23120;52.336;21.182;2023-09-19T15:49:13;20.80;99.90
17066;DHT22;23120;52.336;21.182;2023-09-19T15:51:39;20.90;99.90
17066;DHT22;23120;52.336;21.182;2023-09-19T15:54:10;20.90;99.90
17066;DHT22;23120;52.336;21.182;2023-09-19T15:56:40;20.90;99.90
17066;DHT22;23120;52.336;21.182;2023-09-19T15:59:08;20.90;99.90
17066;DHT22;23120;52.336;21.182;2023-09-19T16:01:36;20.90;99.90
17066;DHT22;23120;52.336;21.182;2023-09-19T16:04:04;20.90;99.90
17066;DHT22;23120;52.336;21.182;2023-09-19T16:06:35;20.90;99.90
17066;DHT22;23120;52.336;21.182;2023-09-19T16:09:02;20.90;99.90
17066;DHT22;23120;52.336;21.182;2023-09-19T16:11:32;20.90;99.90
17066;DHT22;23120;52.336;21.182;2023-09-19T16:14:00;20.80;99.90
17066;DHT22;23120;52.336;21.182;2023-09-19T16:16:28;20.70;99.90
17066;DHT22;23120;52.336;21.182;2023-09-19T16:18:58;20.70;99.90
17066;DHT22;23120;52.336;21.182;2023-09-19T16:21:27;20.60;99.90
17066;DHT22;23120;52.336;21.182;2023-09-19T16:23:58;20.60;99.90
17066;DHT22;23120;52.336;21.182;2023-09-19T16:26:26;20.50;99.90
17066;DHT22;23120;52.336;21.182;2023-09-19T16:28:55;20.50;99.90
17066;DHT22;23120;52.336;21.182;2023-09-19T16:31:28;20.50;99.90
17066;DHT22;23120;52.336;21.182;2023-09-19T16:33:55;20.40;99.90
17066;DHT22;23120;52.336;21.182;2023-09-19T16:36:23;20.30;99.90
17066;DHT22;23120;52.336;21.182;2023-09-19T16:38:50;20.30;99.90
17066;DHT22;23120;52.336;21.182;2023-09-19T16:41:18;20.20;99.90
17066;DHT22;23120;52.336;21.182;2023-09-19T16:43:45;20.20;99.90
17066;DHT22;23120;52.336;21.182;2023-09-19T16:46:13;20.00;99.90
17066;DHT22;23120;52.336;21.182;2023-09-19T16:48:44;20.00;99.90
17066;DHT22;23120;52.336;21.182;2023-09-19T16:51:13;20.00;99.90
17066;DHT22;23120;52.336;21.182;2023-09-19T16:53:40;20.00;99.90
17066;DHT22;23120;52.336;21.182;2023-09-19T16:56:09;20.00;99.90
17066;DHT22;23120;52.336;21.182;2023-09-19T16:58:37;19.90;99.90
17066;DHT22;23120;52.336;21.182;2023-09-19T17:04:41;19.80;99.90
17066;DHT22;23120;52.336;21.182;2023-09-19T17:07:08;19.80;99.90
17066;DHT22;23120;52.336;21.182;2023-09-19T17:09:35;19.80;99.90
17066;DHT22;23120;52.336;21.182;2023-09-19T17:12:02;19.70;99.90
17066;DHT22;23120;52.336;21.182;2023-09-19T17:14:29;19.70;99.90
17066;DHT22;23120;52.336;21.182;2023-09-19T17:17:25;19.60;99.90
17066;DHT22;23120;52.336;21.182;2023-09-19T17:24:21;19.60;99.90
17066;DHT22;23120;52.336;21.182;2023-09-19T17:27:02;19.50;99.90
17066;DHT22;23120;52.336;21.182;2023-09-19T17:33:01;19.40;99.90
17066;DHT22;23120;52.336;21.182;2023-09-19T17:39:47;19.30;99.90
17066;DHT22;23120;52.336;21.182;2023-09-19T17:42:14;19.20;99.90
17066;DHT22;23120;52.336;21.182;2023-09-19T17:45:16;19.20;99.90
17066;DHT22;23120;52.336;21.182;2023-09-19T17:47:53;19.20;99.90
17066;DHT22;23120;52.336;21.182;2023-09-19T17:54:26;19.10;99.90
17066;DHT22;23120;52.336;21.182;2023-09-19T18:01:10;18.90;99.90
17066;DHT22;23120;52.336;21.182;2023-09-19T18:04:17;18.80;99.90
17066;DHT22;23120;52.336;21.182;2023-09-19T18:06:44;18.70;99.90
17066;DHT22;23120;52.336;21.182;2023-09-19T18:09:14;18.70;99.90
17066;DHT22;23120;52.336;21.182;2023-09-19T18:11:43;18.70;99.90
17066;DHT22;23120;52.336;21.182;2023-09-19T18:14:10;18.70;99.90
17066;DHT22;23120;52.336;21.182;2023-09-19T18:24:00;18.50;99.90
17066;DHT22;23120;52.336;21.182;2023-09-19T18:26:29;18.50;99.90
17066;DHT22;23120;52.336;21.182;2023-09-19T18:28:58;18.50;99.90
17066;DHT22;23120;52.336;21.182;2023-09-19T18:31:26;18.40;99.90
17066;DHT22;23120;52.336;21.182;2023-09-19T18:33:54;18.40;99.90
17066;DHT22;23120;52.336;21.182;2023-09-19T18:36:21;18.40;99.90
17066;DHT22;23120;52.336;21.182;2023-09-19T18:38:49;18.30;99.90
17066;DHT22;23120;52.336;21.182;2023-09-19T18:41:18;18.30;99.90
17066;DHT22;23120;52.336;21.182;2023-09-19T18:43:45;18.20;99.90
17066;DHT22;23120;52.336;21.182;2023-09-19T18:46:12;18.10;99.90
17066;DHT22;23120;52.336;21.182;2023-09-19T18:49:08;18.10;99.90
17066;DHT22;23120;52.336;21.182;2023-09-19T18:58:18;17.90;99.90
17066;DHT22;23120;52.336;21.182;2023-09-19T19:07:52;17.70;99.90
17066;DHT22;23120;52.336;21.182;2023-09-19T19:10:24;17.70;99.90
17066;DHT22;23120;52.336;21.182;2023-09-19T19:12:51;17.60;99.90
17066;DHT22;23120;52.336;21.182;2023-09-19T19:15:19;17.60;99.90
17066;DHT22;23120;52.336;21.182;2023-09-19T19:17:47;17.60;99.90
17066;DHT22;23120;52.336;21.182;2023-09-19T19:20:14;17.50;99.90
17066;DHT22;23120;52.336;21.182;2023-09-19T19:22:43;17.50;99.90
17066;DHT22;23120;52.336;21.182;2023-09-19T19:25:10;17.40;99.90
17066;DHT22;23120;52.336;21.182;2023-09-19T19:27:37;17.40;99.90
17066;DHT22;23120;52.336;21.182;2023-09-19T19:30:05;17.40;99.90
17066;DHT22;23120;52.336;21.182;2023-09-19T19:36:36;17.30;99.90
17066;DHT22;23120;52.336;21.182;2023-09-19T19:39:03;17.20;99.90
17066;DHT22;23120;52.336;21.182;2023-09-19T19:41:30;17.20;99.90
17066;DHT22;23120;52.336;21.182;2023-09-19T19:44:00;17.20;99.90
17066;DHT22;23120;52.336;21.182;2023-09-19T19:46:27;17.10;99.90
17066;DHT22;23120;52.336;21.182;2023-09-19T19:48:55;17.10;99.90
17066;DHT22;23120;52.336;21.182;2023-09-19T19:51:21;17.10;99.90
17066;DHT22;23120;52.336;21.182;2023-09-19T19:53:50;17.00;99.90
17066;DHT22;23120;52.336;21.182;2023-09-19T19:56:18;17.00;99.90
17066;DHT22;23120;52.336;21.182;2023-09-19T19:58:45;16.90;99.90
17066;DHT22;23120;52.336;21.182;2023-09-19T20:01:13;16.90;99.90
17066;DHT22;23120;52.336;21.182;2023-09-19T20:03:40;16.90;99.90
17066;DHT22;23120;52.336;21.182;2023-09-19T20:06:08;16.80;99.90
17066;DHT22;23120;52.336;21.182;2023-09-19T20:08:36;16.70;99.90
17066;DHT22;23120;52.336;21.182;2023-09-19T20:11:05;16.70;99.90
17066;DHT22;23120;52.336;21.182;2023-09-19T20:13:33;16.70;99.90
17066;DHT22;23120;52.336;21.182;2023-09-19T20:28:56;16.30;99.90
17066;DHT22;23120;52.336;21.182;2023-09-19T20:31:23;16.30;99.90
17066;DHT22;23120;52.336;21.182;2023-09-19T20:33:50;16.20;99.90
17066;DHT22;23120;52.336;21.182;2023-09-19T20:36:17;16.20;99.90
17066;DHT22;23120;52.336;21.182;2023-09-19T20:42:23;16.10;99.90
17066;DHT22;23120;52.336;21.182;2023-09-19T20:59:34;15.70;99.90
17066;DHT22;23120;52.336;21.182;2023-09-19T21:02:27;15.60;99.90
17066;DHT22;23120;52.336;21.182;2023-09-19T21:04:57;15.50;99.90
17066;DHT22;23120;52.336;21.182;2023-09-19T21:07:25;15.50;99.90
17066;DHT22;23120;52.336;21.182;2023-09-19T21:09:54;15.50;99.90
17066;DHT22;23120;52.336;21.182;2023-09-19T21:12:21;15.40;99.90
17066;DHT22;23120;52.336;21.182;2023-09-19T21:14:50;15.30;99.90
17066;DHT22;23120;52.336;21.182;2023-09-19T21:17:18;15.30;99.90
17066;DHT22;23120;52.336;21.182;2023-09-19T21:19:45;15.20;99.90
17066;DHT22;23120;52.336;21.182;2023-09-19T21:22:12;15.20;99.90
17066;DHT22;23120;52.336;21.182;2023-09-19T21:24:39;15.10;99.90
17066;DHT22;23120;52.336;21.182;2023-09-19T21:27:06;15.10;99.90
17066;DHT22;23120;52.336;21.182;2023-09-19T21:29:33;15.00;99.90
17066;DHT22;23120;52.336;21.182;2023-09-19T21:36:21;14.90;99.90
17066;DHT22;23120;52.336;21.182;2023-09-19T21:38:49;14.90;99.90
17066;DHT22;23120;52.336;21.182;2023-09-19T21:41:18;14.80;99.90
17066;DHT22;23120;52.336;21.182;2023-09-19T21:43:46;14.80;99.90
17066;DHT22;23120;52.336;21.182;2023-09-19T21:46:15;14.70;99.90
17066;DHT22;23120;52.336;21.182;2023-09-19T21:48:42;14.70;99.90
17066;DHT22;23120;52.336;21.182;2023-09-19T21:51:10;14.60;99.90
17066;DHT22;23120;52.336;21.182;2023-09-19T21:53:38;14.50;99.90
17066;DHT22;23120;52.336;21.182;2023-09-19T21:56:06;14.50;99.90
17066;DHT22;23120;52.336;21.182;2023-09-19T21:58:34;14.50;99.90
17066;DHT22;23120;52.336;21.182;2023-09-19T22:01:03;14.40;99.90
17066;DHT22;23120;52.336;21.182;2023-09-19T22:03:33;14.40;99.90
17066;DHT22;23120;52.336;21.182;2023-09-19T22:06:02;14.40;99.90
17066;DHT22;23120;52.336;21.182;2023-09-19T22:08:31;14.40;99.90
17066;DHT22;23120;52.336;21.182;2023-09-19T22:11:00;14.30;99.90
17066;DHT22;23120;52.336;21.182;2023-09-19T22:13:29;14.20;99.90
17066;DHT22;23120;52.336;21.182;2023-09-19T22:15:58;14.20;99.90
17066;DHT22;23120;52.336;21.182;2023-09-19T22:18:25;14.20;99.90
17066;DHT22;23120;52.336;21.182;2023-09-19T22:20:53;14.20;99.90
17066;DHT22;23120;52.336;21.182;2023-09-19T22:23:25;14.20;99.90